createdAt,value
2023-03-04T00:01:51.567Z,7.28
2023-03-04T00:04:18.077Z,6.65
2023-03-04T00:06:44.558Z,7.65
2023-03-04T00:09:11.000Z,7.50
2023-03-04T00:11:37.464Z,6.80
2023-03-04T00:14:03.907Z,6.88
2023-03-04T00:16:30.381Z,7.03
2023-03-04T00:18:57.740Z,7.05
2023-03-04T00:21:26.269Z,7.63
2023-03-04T00:23:52.821Z,6.88
2023-03-04T00:26:19.264Z,6.75
2023-03-04T00:28:45.686Z,6.50
2023-03-04T00:31:12.152Z,6.93
2023-03-04T00:33:40.305Z,6.28
2023-03-04T00:36:07.145Z,5.93
2023-03-04T00:38:33.563Z,6.35
2023-03-04T00:40:59.998Z,6.57
2023-03-04T00:43:26.400Z,7.25
2023-03-04T00:45:52.969Z,6.60
2023-03-04T00:48:22.465Z,7.05
2023-03-04T00:50:49.257Z,6.13
2023-03-04T00:53:15.725Z,6.38
2023-03-04T00:55:42.213Z,6.82
2023-03-04T00:58:08.783Z,6.93
2023-03-04T01:00:35.283Z,6.78
2023-03-04T01:03:01.788Z,7.47
2023-03-04T01:05:28.250Z,6.85
2023-03-04T01:07:54.689Z,7.18
2023-03-04T01:10:21.204Z,6.65
2023-03-04T01:12:47.673Z,7.00
2023-03-04T01:15:15.083Z,6.82
2023-03-04T01:17:41.759Z,7.13
2023-03-04T01:20:09.633Z,7.03
2023-03-04T01:22:36.191Z,7.95
2023-03-04T01:25:02.797Z,6.75
2023-03-04T01:27:29.243Z,6.55
2023-03-04T01:29:55.702Z,6.10
2023-03-04T01:32:22.338Z,6.13
2023-03-04T01:34:48.851Z,6.55
2023-03-04T01:37:15.363Z,6.20
2023-03-04T01:39:41.869Z,6.78
2023-03-04T01:42:18.284Z,7.00
2023-03-04T01:44:45.389Z,6.55
2023-03-04T01:47:12.119Z,6.55
2023-03-04T01:49:38.769Z,6.50
2023-03-04T01:52:06.313Z,6.45
2023-03-04T01:54:32.700Z,6.82
2023-03-04T01:57:00.279Z,6.97
2023-03-04T01:59:30.982Z,6.43
2023-03-04T02:02:00.291Z,6.45
2023-03-04T02:07:00.023Z,6.20
2023-03-04T02:09:26.843Z,6.78
2023-03-04T02:11:53.713Z,6.35
2023-03-04T02:14:21.162Z,6.85
2023-03-04T02:16:48.857Z,6.10
2023-03-04T02:19:17.254Z,6.63
2023-03-04T02:21:43.647Z,6.20
2023-03-04T02:24:37.218Z,7.07
2023-03-04T02:27:06.666Z,6.90
2023-03-04T02:29:33.171Z,7.40
2023-03-04T02:31:59.670Z,6.82
2023-03-04T02:34:31.739Z,6.78
2023-03-04T02:36:58.944Z,6.38
2023-03-04T02:39:33.247Z,6.10
2023-03-04T02:42:01.203Z,6.32
2023-03-04T02:44:30.117Z,6.47
2023-03-04T02:46:57.210Z,6.43
2023-03-04T02:49:26.868Z,6.38
2023-03-04T02:51:59.015Z,6.30
2023-03-04T02:54:25.556Z,6.20
2023-03-04T02:56:54.534Z,6.15
2023-03-04T02:59:22.367Z,6.63
2023-03-04T03:01:49.546Z,6.25
2023-03-04T03:04:16.407Z,6.03
2023-03-04T03:06:44.110Z,6.57
2023-03-04T03:09:10.691Z,6.25
2023-03-04T03:11:37.501Z,6.18
2023-03-04T03:14:04.014Z,6.20
2023-03-04T03:16:30.490Z,6.05
2023-03-04T03:18:56.989Z,5.72
2023-03-04T03:21:23.515Z,6.45
2023-03-04T03:23:50.192Z,5.70
2023-03-04T03:26:16.848Z,6.00
2023-03-04T03:28:43.248Z,5.88
2023-03-04T03:31:09.767Z,6.05
2023-03-04T03:33:36.326Z,5.18
2023-03-04T03:36:03.042Z,5.68
2023-03-04T03:38:32.515Z,5.68
2023-03-04T03:40:59.093Z,5.88
2023-03-04T03:43:25.642Z,5.07
2023-03-04T03:45:52.218Z,5.93
2023-03-04T03:48:18.877Z,5.40
2023-03-04T03:50:45.667Z,5.22
2023-03-04T03:53:12.447Z,5.18
2023-03-04T03:55:39.174Z,5.10
2023-03-04T03:58:05.931Z,5.05
2023-03-04T04:00:32.427Z,5.97
2023-03-04T04:03:00.668Z,5.57
2023-03-04T04:05:27.484Z,5.45
2023-03-04T04:07:54.332Z,5.90
2023-03-04T04:10:21.575Z,5.75
2023-03-04T04:12:48.166Z,5.95
2023-03-04T04:15:17.651Z,5.38
2023-03-04T04:17:44.170Z,5.93
2023-03-04T04:20:11.255Z,5.10
2023-03-04T04:22:37.809Z,5.28
2023-03-04T04:25:05.106Z,5.25
2023-03-04T04:27:31.635Z,5.30
2023-03-04T04:29:58.033Z,5.80
2023-03-04T04:32:24.470Z,5.70
2023-03-04T04:34:50.920Z,5.10
2023-03-04T04:37:17.388Z,5.57
2023-03-04T04:39:43.861Z,5.50
2023-03-04T04:42:12.867Z,6.05
2023-03-04T04:44:39.314Z,9.75
2023-03-04T04:47:07.292Z,6.68
2023-03-04T04:49:33.800Z,5.13
2023-03-04T04:52:00.471Z,6.40
2023-03-04T04:54:27.040Z,5.85
2023-03-04T04:56:53.918Z,4.82
2023-03-04T04:59:20.474Z,5.43
2023-03-04T05:01:46.972Z,5.30
2023-03-04T05:04:13.434Z,5.50
2023-03-04T05:06:39.866Z,5.10
2023-03-04T05:09:07.145Z,5.95
2023-03-04T05:11:33.885Z,5.70
2023-03-04T05:14:00.319Z,5.35
2023-03-04T05:16:26.781Z,5.43
2023-03-04T05:18:53.224Z,5.68
2023-03-04T05:21:19.944Z,6.43
2023-03-04T05:23:46.466Z,5.72
2023-03-04T05:26:15.581Z,5.57
2023-03-04T05:28:42.390Z,5.88
2023-03-04T05:31:09.205Z,5.85
2023-03-04T05:33:36.312Z,6.28
2023-03-04T05:36:04.942Z,5.72
2023-03-04T05:38:31.752Z,6.03
2023-03-04T05:41:00.899Z,5.38
2023-03-04T05:43:28.201Z,6.57
2023-03-04T05:45:55.628Z,6.30
2023-03-04T05:48:22.305Z,6.40
2023-03-04T05:50:54.110Z,6.25
2023-03-04T05:53:20.549Z,6.32
2023-03-04T05:55:47.851Z,6.35
2023-03-04T05:58:15.101Z,6.53
2023-03-04T06:00:41.757Z,6.05
2023-03-04T06:03:14.846Z,6.72
2023-03-04T06:05:41.315Z,6.93
2023-03-04T06:08:07.767Z,6.43
2023-03-04T06:10:34.203Z,6.45
2023-03-04T06:13:00.641Z,6.10
2023-03-04T06:15:27.076Z,6.90
2023-03-04T06:17:53.496Z,7.13
2023-03-04T06:20:19.980Z,6.53
2023-03-04T06:22:46.457Z,7.22
2023-03-04T06:25:12.948Z,6.50
2023-03-04T06:27:39.596Z,6.20
2023-03-04T06:30:06.688Z,7.05
2023-03-04T06:32:33.277Z,6.60
2023-03-04T06:34:59.898Z,7.43
2023-03-04T06:37:26.380Z,7.00
2023-03-04T06:39:52.872Z,6.10
2023-03-04T06:42:19.509Z,6.95
2023-03-04T06:44:45.998Z,6.82
2023-03-04T06:47:12.483Z,6.70
2023-03-04T06:49:38.902Z,5.95
2023-03-04T06:52:05.446Z,5.80
2023-03-04T06:54:31.856Z,5.93
2023-03-04T06:56:58.354Z,6.25
2023-03-04T06:59:24.895Z,6.47
2023-03-04T07:01:51.412Z,6.80
2023-03-04T07:04:17.940Z,6.97
2023-03-04T07:06:44.436Z,6.15
2023-03-04T07:09:10.932Z,6.65
2023-03-04T07:11:37.481Z,6.60
2023-03-04T07:14:03.905Z,6.70
2023-03-04T07:16:30.513Z,7.03
2023-03-04T07:18:57.059Z,6.68
2023-03-04T07:21:23.503Z,6.28
2023-03-04T07:23:50.173Z,6.85
2023-03-04T07:26:17.406Z,7.18
2023-03-04T07:28:43.893Z,6.55
2023-03-04T07:31:13.225Z,6.95
2023-03-04T07:33:39.931Z,6.50
2023-03-04T07:36:06.592Z,6.70
2023-03-04T07:38:33.184Z,6.47
2023-03-04T07:40:59.944Z,6.47
2023-03-04T07:43:26.406Z,6.60
2023-03-04T07:45:52.970Z,6.00
2023-03-04T07:48:19.396Z,6.55
2023-03-04T07:50:45.977Z,7.30
2023-03-04T07:53:12.402Z,5.93
2023-03-04T07:55:38.813Z,6.68
2023-03-04T07:58:05.472Z,6.95
2023-03-04T08:00:31.961Z,7.20
2023-03-04T08:02:58.368Z,6.38
2023-03-04T08:05:24.755Z,6.55
2023-03-04T08:07:51.141Z,6.97
2023-03-04T08:10:17.704Z,7.85
2023-03-04T08:12:44.157Z,7.57
2023-03-04T08:15:11.087Z,7.10
2023-03-04T08:17:38.049Z,7.35
2023-03-04T08:20:04.735Z,6.53
2023-03-04T08:22:31.172Z,7.60
2023-03-04T08:24:57.600Z,7.32
2023-03-04T08:27:24.063Z,8.40
2023-03-04T08:29:50.440Z,7.68
2023-03-04T08:32:16.992Z,7.50
2023-03-04T08:34:43.464Z,7.38
2023-03-04T08:37:10.064Z,8.88
2023-03-04T08:39:37.745Z,8.73
2023-03-04T08:42:04.182Z,7.95
2023-03-04T08:44:30.622Z,8.43
2023-03-04T08:46:57.169Z,7.72
2023-03-04T08:49:23.649Z,7.93
2023-03-04T08:51:50.106Z,7.15
2023-03-04T08:54:16.545Z,7.88
2023-03-04T08:56:42.956Z,7.70
2023-03-04T08:59:09.435Z,7.68
2023-03-04T09:01:35.913Z,7.97
2023-03-04T09:04:02.492Z,8.00
2023-03-04T09:06:28.954Z,6.97
2023-03-04T09:08:55.351Z,7.40
2023-03-04T09:11:21.794Z,7.93
2023-03-04T09:13:48.240Z,7.32
2023-03-04T09:16:15.131Z,7.22
2023-03-04T09:25:00.951Z,8.32
2023-03-04T09:27:27.470Z,8.13
2023-03-04T09:29:53.854Z,9.02
2023-03-04T09:32:20.335Z,9.23
2023-03-04T09:34:46.787Z,7.72
2023-03-04T09:37:13.286Z,8.50
2023-03-04T09:39:39.734Z,8.60
2023-03-04T09:42:09.216Z,8.43
2023-03-04T09:44:45.670Z,7.38
2023-03-04T09:47:21.329Z,8.35
2023-03-04T09:50:01.308Z,8.15
2023-03-04T09:53:06.265Z,8.07
2023-03-04T09:55:40.497Z,7.55
2023-03-04T09:58:16.012Z,7.55
2023-03-04T10:03:14.216Z,7.10
2023-03-04T10:06:03.644Z,7.90
2023-03-04T10:08:54.020Z,8.05
2023-03-04T10:11:35.205Z,8.45
2023-03-04T10:14:21.811Z,8.50
2023-03-04T10:17:13.370Z,8.10
2023-03-04T10:19:52.707Z,8.52
2023-03-04T10:22:51.797Z,7.70
2023-03-04T10:25:32.421Z,7.90
2023-03-04T10:28:03.055Z,7.85
2023-03-04T10:31:02.550Z,7.60
2023-03-04T10:33:32.364Z,7.43
2023-03-04T10:36:10.617Z,7.32
2023-03-04T10:38:40.266Z,7.82
2023-03-04T10:41:20.278Z,7.50
2023-03-04T10:43:59.989Z,6.93
2023-03-04T10:46:26.842Z,6.97
2023-03-04T10:48:53.993Z,7.53
2023-03-04T10:51:23.791Z,8.48
2023-03-04T10:54:22.131Z,7.65
2023-03-04T10:56:59.120Z,7.25
2023-03-04T10:59:46.243Z,7.85
2023-03-04T11:02:22.718Z,8.57
2023-03-04T11:04:54.815Z,8.75
2023-03-04T11:07:23.491Z,8.05
2023-03-04T11:09:49.996Z,7.57
2023-03-04T11:12:20.474Z,7.88
2023-03-04T11:14:52.113Z,8.32
2023-03-04T11:17:20.645Z,7.20
2023-03-04T11:20:06.704Z,7.47
2023-03-04T11:22:33.396Z,7.40
2023-03-04T11:25:07.600Z,7.60
2023-03-04T11:27:44.802Z,7.95
2023-03-04T11:30:36.512Z,7.55
2023-03-04T11:33:23.282Z,7.70
2023-03-04T11:36:15.766Z,7.10
2023-03-04T11:38:49.264Z,7.07
2023-03-04T11:41:36.258Z,7.78
2023-03-04T11:44:06.306Z,8.13
2023-03-04T11:47:01.711Z,7.90
2023-03-04T11:49:58.134Z,7.05
2023-03-04T11:53:04.599Z,8.68
2023-03-04T11:55:40.699Z,7.35
2023-03-04T11:58:42.425Z,7.07
2023-03-04T12:01:37.438Z,7.38
2023-03-04T12:04:28.792Z,7.00
2023-03-04T12:07:23.287Z,8.52
2023-03-04T12:09:55.622Z,7.90
2023-03-04T12:12:42.272Z,8.73
2023-03-04T12:15:29.298Z,7.50
2023-03-04T12:18:21.615Z,7.70
2023-03-04T12:21:14.346Z,8.15
2023-03-04T12:24:10.211Z,8.35
2023-03-04T12:26:46.186Z,7.57
2023-03-04T12:29:18.269Z,8.23
2023-03-04T12:31:51.833Z,7.97
2023-03-04T12:34:36.611Z,9.10
2023-03-04T12:37:27.622Z,8.82
2023-03-04T12:40:20.199Z,9.05
2023-03-04T12:43:00.329Z,7.15
2023-03-04T12:45:35.659Z,7.38
2023-03-04T12:51:09.633Z,7.47
2023-03-04T12:54:03.713Z,7.05
2023-03-04T12:56:47.033Z,8.00
2023-03-04T12:59:17.160Z,7.20
2023-03-04T13:01:53.947Z,6.80
2023-03-04T13:04:40.361Z,7.03
2023-03-04T13:07:38.332Z,6.47
2023-03-04T13:10:12.667Z,6.55
2023-03-04T13:12:58.059Z,6.85
2023-03-04T13:15:24.683Z,6.45
2023-03-04T13:17:56.655Z,6.55
2023-03-04T13:20:33.060Z,6.80
2023-03-04T13:23:06.531Z,6.82
2023-03-04T13:25:37.755Z,6.68
2023-03-04T13:28:10.314Z,6.47
2023-03-04T13:30:38.130Z,6.00
2023-03-04T13:33:10.754Z,5.97
2023-03-04T13:35:49.565Z,6.13
2023-03-04T13:38:28.405Z,5.47
2023-03-04T13:41:16.028Z,6.15
2023-03-04T13:43:43.575Z,5.55
2023-03-04T13:46:26.885Z,5.05
2023-03-04T13:48:56.375Z,5.20
2023-03-04T13:51:44.936Z,5.25
2023-03-04T13:54:23.926Z,5.78
2023-03-04T13:57:19.357Z,4.35
2023-03-04T13:59:50.899Z,5.03
2023-03-04T14:02:25.402Z,5.35
2023-03-04T14:04:54.940Z,5.35
2023-03-04T14:07:36.528Z,4.57
2023-03-04T14:10:07.723Z,5.38
2023-03-04T14:12:47.660Z,5.05
2023-03-04T14:15:13.972Z,5.03
2023-03-04T14:17:47.130Z,5.28
2023-03-04T14:20:34.489Z,5.45
2023-03-04T14:23:03.634Z,4.53
2023-03-04T14:25:34.932Z,4.60
2023-03-04T14:28:12.928Z,5.32
2023-03-04T14:30:43.697Z,5.70
2023-03-04T14:33:18.228Z,5.47
2023-03-04T14:35:50.515Z,6.38
2023-03-04T14:38:27.385Z,6.38
2023-03-04T14:41:01.433Z,7.68
2023-03-04T14:43:31.923Z,5.85
2023-03-04T14:46:01.269Z,6.35
2023-03-04T14:48:31.097Z,6.88
2023-03-04T14:50:59.277Z,6.45
2023-03-04T14:53:28.212Z,6.57
2023-03-04T14:58:24.803Z,6.07
2023-03-04T15:01:23.133Z,6.57
2023-03-04T15:03:59.819Z,7.20
2023-03-04T15:06:29.604Z,6.65
2023-03-04T15:09:02.584Z,6.18
2023-03-04T15:11:54.546Z,6.20
2023-03-04T15:14:44.150Z,7.28
2023-03-04T15:17:38.179Z,6.68
2023-03-04T15:20:07.769Z,6.72
2023-03-04T15:22:35.636Z,6.80
2023-03-04T15:25:02.457Z,7.82
2023-03-04T15:27:30.332Z,6.70
2023-03-04T15:29:59.253Z,6.57
2023-03-04T15:32:26.848Z,7.60
2023-03-04T15:34:53.231Z,7.15
2023-03-04T15:37:23.220Z,6.72
2023-03-04T15:39:50.478Z,6.68
2023-03-04T15:42:17.391Z,6.85
2023-03-04T15:44:44.220Z,6.68
2023-03-04T15:47:13.089Z,7.03
2023-03-04T15:49:41.013Z,7.57
2023-03-04T15:52:15.542Z,6.78
2023-03-04T15:54:42.066Z,6.38
2023-03-04T15:57:24.935Z,6.70
2023-03-04T15:59:51.806Z,7.13
2023-03-04T16:02:23.723Z,7.03
2023-03-04T16:04:50.783Z,7.50
2023-03-04T16:07:19.976Z,7.25
2023-03-04T16:09:52.233Z,6.72
2023-03-04T16:12:18.622Z,6.60
2023-03-04T16:14:46.844Z,7.40
2023-03-04T16:17:16.191Z,7.53
2023-03-04T16:19:42.819Z,6.93
2023-03-04T16:22:17.581Z,7.35
2023-03-04T16:24:44.207Z,6.97
2023-03-04T16:27:12.901Z,6.90
2023-03-04T16:29:39.287Z,6.95
2023-03-04T16:32:05.878Z,7.50
2023-03-04T16:34:32.632Z,6.82
2023-03-04T16:37:05.272Z,6.78
2023-03-04T16:39:31.673Z,6.70
2023-03-04T16:41:58.178Z,6.82
2023-03-04T16:44:25.246Z,7.63
2023-03-04T16:46:51.631Z,7.00
2023-03-04T16:49:18.035Z,6.97
2023-03-04T16:51:48.882Z,7.20
2023-03-04T16:54:26.404Z,6.43
2023-03-04T16:56:52.791Z,7.25
2023-03-04T16:59:19.179Z,7.38
2023-03-04T17:01:45.587Z,6.63
2023-03-04T17:04:11.945Z,6.57
2023-03-04T17:06:39.762Z,6.20
2023-03-04T17:09:07.593Z,6.57
2023-03-04T17:11:34.612Z,6.13
2023-03-04T17:14:01.050Z,6.57
2023-03-04T17:16:27.722Z,6.68
2023-03-04T17:18:54.827Z,6.53
2023-03-04T17:21:24.524Z,6.30
2023-03-04T17:23:51.853Z,6.50
2023-03-04T17:26:22.402Z,6.90
2023-03-04T17:28:50.364Z,7.00
2023-03-04T17:31:18.840Z,6.20
2023-03-04T17:33:46.078Z,6.30
2023-03-04T17:36:14.082Z,6.97
2023-03-04T17:38:41.107Z,7.30
2023-03-04T17:41:11.038Z,6.57
2023-03-04T17:43:37.421Z,7.45
2023-03-04T17:46:06.490Z,8.43
2023-03-04T17:48:33.204Z,6.63
2023-03-04T17:50:59.623Z,7.45
2023-03-04T17:53:26.549Z,6.78
2023-03-04T17:55:55.318Z,6.32
2023-03-04T17:58:22.571Z,5.80
2023-03-04T18:00:51.109Z,6.32
2023-03-04T18:03:17.836Z,6.47
2023-03-04T18:05:44.216Z,6.75
2023-03-04T18:08:10.615Z,6.80
2023-03-04T18:10:37.046Z,5.85
2023-03-04T18:13:03.686Z,5.88
2023-03-04T18:15:30.182Z,7.03
2023-03-04T18:17:56.662Z,8.23
2023-03-04T18:20:23.031Z,6.65
2023-03-04T18:22:49.430Z,5.88
2023-03-04T18:25:16.831Z,5.75
2023-03-04T18:27:43.674Z,6.55
2023-03-04T18:30:13.681Z,5.78
2023-03-04T18:32:51.418Z,6.35
2023-03-04T18:35:19.512Z,6.30
2023-03-04T18:37:46.078Z,6.38
2023-03-04T18:40:13.200Z,6.25
2023-03-04T18:42:39.853Z,6.18
2023-03-04T18:45:06.981Z,6.15
2023-03-04T18:47:34.004Z,5.00
2023-03-04T18:50:00.414Z,5.72
2023-03-04T18:52:27.050Z,5.72
2023-03-04T18:54:53.436Z,5.05
2023-03-04T18:57:20.081Z,5.38
2023-03-04T19:00:08.620Z,5.80
2023-03-04T19:02:45.258Z,6.15
2023-03-04T19:05:16.435Z,5.72
2023-03-04T19:07:42.917Z,5.93
2023-03-04T19:10:10.501Z,5.90
2023-03-04T19:12:36.876Z,6.22
2023-03-04T19:15:05.681Z,6.00
2023-03-04T19:17:33.343Z,6.68
2023-03-04T19:19:59.904Z,5.82
2023-03-04T19:22:26.325Z,6.32
2023-03-04T19:24:52.814Z,6.28
2023-03-04T19:27:19.637Z,6.13
2023-03-04T19:29:47.362Z,6.53
2023-03-04T19:32:14.364Z,5.75
2023-03-04T19:34:40.750Z,5.70
2023-03-04T19:37:07.153Z,5.55
2023-03-04T19:39:33.553Z,6.03
2023-03-04T19:41:59.955Z,6.60
2023-03-04T19:44:26.408Z,7.38
2023-03-04T19:46:52.834Z,6.15
2023-03-04T19:49:19.415Z,7.07
2023-03-04T19:51:45.796Z,5.43
2023-03-04T19:54:12.202Z,7.05
2023-03-04T19:56:38.632Z,5.88
2023-03-04T19:59:05.025Z,6.60
2023-03-04T20:01:33.538Z,6.30
2023-03-04T20:04:03.220Z,6.53
2023-03-04T20:06:30.430Z,6.28
2023-03-04T20:08:59.143Z,6.22
2023-03-04T20:11:27.238Z,6.78
2023-03-04T20:13:54.936Z,6.90
2023-03-04T20:16:21.344Z,6.05
2023-03-04T20:18:47.802Z,6.45
2023-03-04T20:21:14.228Z,6.18
2023-03-04T20:23:40.643Z,5.88
2023-03-04T20:26:07.156Z,6.63
2023-03-04T20:28:33.862Z,6.50
2023-03-04T20:31:22.700Z,5.90
2023-03-04T20:33:50.368Z,5.93
2023-03-04T20:36:22.348Z,6.55
2023-03-04T20:38:50.369Z,5.72
2023-03-04T20:41:18.757Z,6.47
2023-03-04T20:43:45.163Z,6.10
2023-03-04T20:46:39.078Z,6.30
2023-03-04T20:49:11.362Z,6.50
2023-03-04T20:51:38.435Z,6.45
2023-03-04T20:54:06.174Z,6.30
2023-03-04T20:56:33.869Z,6.03
2023-03-04T20:59:03.688Z,6.45
2023-03-04T21:01:31.475Z,6.22
2023-03-04T21:03:59.628Z,6.07
2023-03-04T21:06:28.994Z,6.28
2023-03-04T21:09:51.495Z,6.28
2023-03-04T21:12:17.883Z,6.75
2023-03-04T21:14:44.971Z,6.30
2023-03-04T21:17:12.262Z,6.75
2023-03-04T21:19:43.189Z,6.60
2023-03-04T21:22:18.125Z,6.90
2023-03-04T21:24:45.599Z,6.43
2023-03-04T21:27:13.539Z,6.45
2023-03-04T21:29:40.023Z,7.35
2023-03-04T21:32:25.251Z,6.93
2023-03-04T21:34:53.939Z,6.90
2023-03-04T21:37:21.505Z,6.80
2023-03-04T21:39:47.996Z,6.05
2023-03-04T21:42:14.473Z,7.28
2023-03-04T21:44:48.970Z,5.80
2023-03-04T21:47:16.560Z,6.38
2023-03-04T21:49:43.309Z,6.68
2023-03-04T21:52:09.771Z,7.60
2023-03-04T21:54:36.142Z,6.05
2023-03-04T21:57:02.655Z,7.90
2023-03-04T21:59:29.135Z,8.10
2023-03-04T22:01:55.562Z,7.15
2023-03-04T22:04:21.998Z,6.93
2023-03-04T22:06:48.440Z,6.82
2023-03-04T22:09:14.886Z,6.90
2023-03-04T22:11:41.366Z,5.88
2023-03-04T22:14:07.845Z,6.93
2023-03-04T22:16:39.849Z,6.20
2023-03-04T22:19:11.939Z,7.07
2023-03-04T22:21:38.329Z,6.32
2023-03-04T22:24:05.047Z,6.95
2023-03-04T22:26:34.285Z,7.13
2023-03-04T22:29:01.608Z,7.05
2023-03-04T22:31:32.700Z,7.07
2023-03-04T22:34:04.298Z,7.22
2023-03-04T22:36:33.100Z,7.68
2023-03-04T22:39:00.604Z,7.75
2023-03-04T22:41:27.297Z,7.75
2023-03-04T22:43:53.954Z,7.82
2023-03-04T22:46:24.950Z,7.30
2023-03-04T22:48:52.823Z,7.88
2023-03-04T22:51:20.659Z,7.05
2023-03-04T22:53:48.477Z,6.85
2023-03-04T22:56:15.577Z,6.18
2023-03-04T22:58:44.341Z,6.60
2023-03-04T23:01:11.778Z,7.22
2023-03-04T23:03:40.082Z,7.03
2023-03-04T23:06:13.210Z,7.43
2023-03-04T23:08:41.234Z,7.80
2023-03-04T23:11:22.932Z,6.63
2023-03-04T23:13:50.171Z,6.93
2023-03-04T23:16:17.400Z,7.07
2023-03-04T23:18:47.193Z,7.85
2023-03-04T23:21:19.596Z,7.78
2023-03-04T23:23:46.965Z,7.28
2023-03-04T23:26:28.377Z,7.07
2023-03-04T23:28:56.852Z,8.13
2023-03-04T23:31:23.565Z,8.18
2023-03-04T23:33:50.103Z,7.63
2023-03-04T23:36:18.900Z,7.57
2023-03-04T23:38:47.653Z,8.15
2023-03-04T23:41:17.237Z,8.85
2023-03-04T23:43:44.055Z,7.95
2023-03-04T23:46:13.313Z,7.93
2023-03-04T23:48:41.080Z,7.45
2023-03-04T23:51:08.794Z,8.40
2023-03-04T23:53:38.727Z,8.57
2023-03-04T23:56:20.657Z,8.82
2023-03-04T23:58:47.666Z,8.40
